Time;durP1;ratioP1;P1;durP2;ratioP2;P2;SDS_P1;SDS_P2;PMS_P1;PMS_P2;Temp;Humidity;BMP_temperature;BMP_pressure;BME280_temperature;BME280_humidity;BME280_pressure;Samples;Min_cycle;Max_cycle;Signal;HPM_P1;HPM_P2
2022/07/18 00:00:35;;;;;;;1999.90;999.90;;;;;;;21.42;39.91;96170.47;5031384;28;20432;-64
2022/07/18 00:03:01;;;;;;;1999.90;999.90;;;;;;;21.32;40.14;96162.88;5031466;28;20413;-64
2022/07/18 00:05:26;;;;;;;1999.90;999.90;;;;;;;21.32;40.07;96175.63;5029554;28;20695;-64
2022/07/18 00:07:51;;;;;;;1999.90;999.90;;;;;;;21.20;40.38;96158.31;5029608;28;20053;-64
2022/07/18 00:10:17;;;;;;;1999.90;999.90;;;;;;;21.23;40.48;96168.41;5031312;28;20029;-64
2022/07/18 00:12:42;;;;;;;1999.90;999.90;;;;;;;21.21;40.65;96172.63;5031230;28;20096;-65
2022/07/18 00:15:09;;;;;;;1999.90;999.90;;;;;;;21.15;40.81;96182.91;5028997;28;20044;-64
2022/07/18 00:17:35;;;;;;;1999.90;999.90;;;;;;;21.14;41.25;96180.53;5031842;28;20025;-64
2022/07/18 00:20:01;;;;;;;1999.90;999.90;;;;;;;20.94;41.38;96149.88;5029995;28;20040;-65
2022/07/18 00:22:26;;;;;;;1999.90;999.90;;;;;;;20.98;41.63;96165.06;5030139;28;20490;-64
2022/07/18 00:24:51;;;;;;;1999.90;999.90;;;;;;;20.94;41.75;96168.81;5030758;28;20026;-65
2022/07/18 00:27:17;;;;;;;1999.90;999.90;;;;;;;21.03;41.70;96174.84;5030798;28;20053;-64
2022/07/18 00:29:42;;;;;;;1999.90;999.90;;;;;;;21.00;41.77;96178.25;5012999;28;20492;-64
2022/07/18 00:32:08;;;;;;;1999.90;999.90;;;;;;;20.97;41.93;96182.41;5030384;28;20063;-64
2022/07/18 00:34:34;;;;;;;1999.90;999.90;;;;;;;20.94;41.88;96177.72;5012805;28;20109;-64
2022/07/18 00:37:00;;;;;;;1999.90;999.90;;;;;;;20.77;42.02;96161.78;5029499;28;20076;-65
2022/07/18 00:39:26;;;;;;;1999.90;999.90;;;;;;;20.83;41.78;96171.22;5013069;28;20060;-64
2022/07/18 00:41:51;;;;;;;1999.90;999.90;;;;;;;20.78;42.01;96168.78;5031385;28;20033;-64
2022/07/18 00:44:22;;;;;;;1999.90;999.90;;;;;;;20.73;42.09;96167.09;5030187;28;20179;-64
2022/07/18 00:46:52;;;;;;;1999.90;999.90;;;;;;;20.71;42.00;96168.56;5011161;28;20103;-64
2022/07/18 00:49:18;;;;;;;1999.90;999.90;;;;;;;20.68;42.10;96159.25;5030585;28;20478;-64
2022/07/18 00:51:43;;;;;;;1999.90;999.90;;;;;;;20.70;42.05;96167.00;5012702;28;20030;-64
2022/07/18 00:54:09;;;;;;;1999.90;999.90;;;;;;;20.65;42.23;96164.53;5030111;28;20116;-64
2022/07/18 00:56:34;;;;;;;1999.90;999.90;;;;;;;20.61;42.47;96161.72;5029171;28;20363;-64
2022/07/18 00:58:59;;;;;;;1999.90;999.90;;;;;;;20.42;42.42;96140.72;5030205;28;20045;-65
2022/07/18 01:01:43;;;;;;;1999.90;999.90;;;;;;;20.38;42.40;96131.72;5030111;28;20025;-64
2022/07/18 01:04:20;;;;;;;1999.90;999.90;;;;;;;20.48;42.61;96155.59;5012356;28;20057;-64
2022/07/18 01:06:47;;;;;;;1999.90;999.90;;;;;;;20.45;42.71;96147.34;5029229;28;20025;-64
2022/07/18 01:09:14;;;;;;;1999.90;999.90;;;;;;;20.45;42.72;96161.63;5029022;28;20378;-64
2022/07/18 01:11:40;;;;;;;1999.90;999.90;;;;;;;20.42;42.99;96162.34;5030474;28;20064;-64
2022/07/18 01:14:06;;;;;;;1999.90;999.90;;;;;;;20.36;43.23;96152.88;5029399;28;20450;-64
2022/07/18 01:16:33;;;;;;;1999.90;999.90;;;;;;;20.35;43.21;96158.63;5049305;22;20055;-68
2022/07/18 01:18:58;;;;;;;1999.90;999.90;;;;;;;20.11;43.34;96118.94;5043208;28;20029;-65
2022/07/18 01:21:24;;;;;;;1999.90;999.90;;;;;;;20.32;43.12;96162.81;5029784;28;20404;-67
2022/07/18 01:23:49;;;;;;;1999.90;999.90;;;;;;;20.29;43.38;96152.66;5028765;28;20064;-67
2022/07/18 01:26:16;;;;;;;1999.90;999.90;;;;;;;20.02;43.16;96119.09;5029597;28;20391;-65
2022/07/18 01:28:42;;;;;;;1999.90;999.90;;;;;;;19.99;43.13;96130.56;5030315;28;20389;-66
2022/07/18 01:31:08;;;;;;;1999.90;999.90;;;;;;;20.12;43.52;96153.72;5028995;28;20021;-67
2022/07/18 01:33:34;;;;;;;1999.90;999.90;;;;;;;19.41;43.55;96035.44;5027058;28;20092;-67
2022/07/18 01:36:01;;;;;;;1999.90;999.90;;;;;;;20.25;43.57;96157.97;5017806;28;20030;-67
2022/07/18 01:38:30;;;;;;;1999.90;999.90;;;;;;;20.23;43.26;96165.63;5010500;28;20029;-67
2022/07/18 01:40:57;;;;;;;1999.90;999.90;;;;;;;20.18;43.33;96163.16;5041991;28;20076;-67
2022/07/18 01:43:23;;;;;;;1999.90;999.90;;;;;;;20.05;43.69;96158.09;5020058;28;20084;-68
2022/07/18 01:45:49;;;;;;;1999.90;999.90;;;;;;;20.01;43.90;96152.59;5026689;28;20082;-67
2022/07/18 01:48:15;;;;;;;1999.90;999.90;;;;;;;19.74;43.69;96098.19;5025968;28;20104;-67
2022/07/18 01:50:40;;;;;;;1999.90;999.90;;;;;;;20.07;43.64;96153.19;5028745;28;20029;-67
2022/07/18 01:53:06;;;;;;;1999.90;999.90;;;;;;;20.14;43.65;96161.47;5028406;28;20028;-67
2022/07/18 01:55:31;;;;;;;1999.90;999.90;;;;;;;19.98;43.72;96140.56;5027896;28;20025;-67
2022/07/18 01:57:56;;;;;;;1999.90;999.90;;;;;;;20.16;43.70;96173.50;5029259;28;20034;-67
2022/07/18 02:00:22;;;;;;;1999.90;999.90;;;;;;;20.02;43.80;96148.78;5028871;28;20860;-66
2022/07/18 02:02:47;;;;;;;1999.90;999.90;;;;;;;20.05;43.78;96153.50;5028201;28;20021;-66
2022/07/18 02:05:13;;;;;;;1999.90;999.90;;;;;;;20.08;43.79;96155.53;5028413;28;20033;-66
2022/07/18 02:07:41;;;;;;;1999.90;999.90;;;;;;;20.08;43.85;96169.03;5030198;28;20029;-65
2022/07/18 02:10:09;;;;;;;1999.90;999.90;;;;;;;19.97;44.10;96160.59;5029466;28;20492;-66
2022/07/18 02:12:36;;;;;;;1999.90;999.90;;;;;;;19.80;44.21;96131.13;5044617;28;20104;-66
2022/07/18 02:15:03;;;;;;;1999.90;999.90;;;;;;;19.93;44.37;96153.50;5028243;28;20029;-66
2022/07/18 02:17:29;;;;;;;1999.90;999.90;;;;;;;19.82;44.50;96139.69;5029524;28;20044;-65
2022/07/18 02:19:54;;;;;;;1999.90;999.90;;;;;;;19.87;44.49;96144.06;5027422;28;20041;-66
2022/07/18 02:22:19;;;;;;;1999.90;999.90;;;;;;;19.83;44.56;96135.06;5028855;28;20041;-65
2022/07/18 02:24:45;;;;;;;1999.90;999.90;;;;;;;19.88;44.91;96153.75;5027602;28;20041;-65
2022/07/18 02:27:10;;;;;;;1999.90;999.90;;;;;;;19.72;44.67;96135.53;5027896;28;20049;-65
2022/07/18 02:29:37;;;;;;;1999.90;999.90;;;;;;;19.71;44.82;96138.56;5029160;28;20445;-66
2022/07/18 02:32:02;;;;;;;1999.90;999.90;;;;;;;19.67;44.97;96138.44;5027906;28;20585;-66
2022/07/18 02:34:27;;;;;;;1999.90;999.90;;;;;;;19.79;44.97;96142.28;5029116;28;20061;-67
2022/07/18 02:36:53;;;;;;;1999.90;999.90;;;;;;;19.57;44.99;96109.19;5027758;28;20056;-65
2022/07/18 02:39:19;;;;;;;1999.90;999.90;;;;;;;19.68;45.32;96113.03;5028026;28;20059;-65
2022/07/18 02:41:44;;;;;;;1999.90;999.90;;;;;;;19.69;45.20;96122.69;5028771;28;20116;-65
2022/07/18 02:44:09;;;;;;;1999.90;999.90;;;;;;;19.75;45.35;96136.75;5029563;28;20029;-66
2022/07/18 02:46:35;;;;;;;1999.90;999.90;;;;;;;19.84;44.92;96142.81;5028857;28;20037;-65
2022/07/18 02:49:01;;;;;;;1999.90;999.90;;;;;;;19.77;45.40;96139.13;5036029;28;20032;-65
2022/07/18 02:51:26;;;;;;;1999.90;999.90;;;;;;;19.79;45.44;96144.97;5021600;28;20106;-65
2022/07/18 02:53:52;;;;;;;1999.90;999.90;;;;;;;19.71;45.56;96146.69;5015916;28;20467;-65
2022/07/18 02:56:17;;;;;;;1999.90;999.90;;;;;;;19.72;45.39;96148.25;5032428;28;20025;-65
2022/07/18 02:58:42;;;;;;;1999.90;999.90;;;;;;;19.73;45.74;96158.69;5034279;28;20561;-65
2022/07/18 03:01:08;;;;;;;1999.90;999.90;;;;;;;19.66;45.40;96150.38;5035512;28;20661;-65
2022/07/18 03:03:33;;;;;;;1999.90;999.90;;;;;;;19.62;45.68;96140.59;5035440;28;20067;-66
2022/07/18 03:05:58;;;;;;;1999.90;999.90;;;;;;;19.63;45.62;96166.44;5033744;28;20033;-65
2022/07/18 03:08:23;;;;;;;1999.90;999.90;;;;;;;19.33;45.62;96125.34;5034560;28;20021;-66
2022/07/18 03:10:49;;;;;;;1999.90;999.90;;;;;;;19.29;45.90;96132.53;5037642;28;20029;-66
2022/07/18 03:13:14;;;;;;;1999.90;999.90;;;;;;;19.44;46.27;96164.25;5035448;28;20025;-65
2022/07/18 03:15:40;;;;;;;1999.90;999.90;;;;;;;19.23;46.18;96138.16;5032033;28;20028;-66
2022/07/18 03:18:05;;;;;;;1999.90;999.90;;;;;;;19.14;46.35;96137.50;5035594;28;20065;-66
2022/07/18 03:20:31;;;;;;;1999.90;999.90;;;;;;;19.27;46.60;96167.16;5032766;28;20465;-66
2022/07/18 03:22:57;;;;;;;1999.90;999.90;;;;;;;19.00;46.80;96144.31;5033784;28;20030;-66
2022/07/18 03:25:22;;;;;;;1999.90;999.90;;;;;;;19.20;46.65;96179.28;5034306;28;20108;-67
2022/07/18 03:27:47;;;;;;;1999.90;999.90;;;;;;;19.06;47.26;96151.84;5033797;28;20029;-66
2022/07/18 03:30:13;;;;;;;1999.90;999.90;;;;;;;19.27;46.94;96188.75;5033582;28;20026;-67
2022/07/18 03:32:39;;;;;;;1999.90;999.90;;;;;;;19.24;46.91;96179.41;5035403;28;20393;-67
2022/07/18 03:35:05;;;;;;;1999.90;999.90;;;;;;;19.23;46.98;96178.63;5031878;28;20041;-66
2022/07/18 03:37:30;;;;;;;1999.90;999.90;;;;;;;19.08;47.20;96160.38;5034850;28;20040;-65
2022/07/18 03:39:56;;;;;;;1999.90;999.90;;;;;;;19.06;47.48;96167.22;5030446;28;20046;-65
2022/07/18 03:42:21;;;;;;;1999.90;999.90;;;;;;;19.12;46.89;96165.91;5030741;28;20026;-65
2022/07/18 03:44:47;;;;;;;1999.90;999.90;;;;;;;19.01;47.74;96175.53;5033640;28;20080;-66
2022/07/18 03:47:12;;;;;;;1999.90;999.90;;;;;;;19.12;47.77;96207.13;5033353;28;20105;-66
2022/07/18 03:49:37;;;;;;;1999.90;999.90;;;;;;;18.95;47.90;96183.03;5035629;28;20037;-65
2022/07/18 03:52:03;;;;;;;1999.90;999.90;;;;;;;18.79;47.63;96155.13;5031263;28;20056;-65
2022/07/18 03:54:28;;;;;;;1999.90;999.90;;;;;;;18.75;48.03;96175.78;5030254;28;20034;-66
2022/07/18 03:56:53;;;;;;;1999.90;999.90;;;;;;;18.76;47.54;96153.88;5029414;28;20040;-65
2022/07/18 03:59:19;;;;;;;1999.90;999.90;;;;;;;18.92;47.03;96151.34;5030838;28;20533;-65
2022/07/18 04:01:44;;;;;;;1999.90;999.90;;;;;;;18.64;47.50;96159.97;5031790;28;20041;-65
2022/07/18 04:04:09;;;;;;;1999.90;999.90;;;;;;;19.13;47.26;96194.44;5029989;28;20033;-64
2022/07/18 04:06:35;;;;;;;1999.90;999.90;;;;;;;19.28;46.90;96184.91;5031057;28;20032;-69
2022/07/18 04:09:00;;;;;;;1999.90;999.90;;;;;;;19.29;46.23;96152.22;5030279;28;20025;-66
2022/07/18 04:11:25;;;;;;;1999.90;999.90;;;;;;;19.64;45.72;96174.19;5030764;28;20116;-67
2022/07/18 04:13:52;;;;;;;1999.90;999.90;;;;;;;20.16;45.28;96197.81;5031250;28;20036;-66
2022/07/18 04:16:17;;;;;;;1999.90;999.90;;;;;;;20.45;44.73;96201.38;5030725;28;20080;-66
2022/07/18 04:18:42;;;;;;;1999.90;999.90;;;;;;;20.69;44.26;96182.44;5029921;28;20025;-66
2022/07/18 04:21:08;;;;;;;1999.90;999.90;;;;;;;20.94;43.34;96177.72;5029546;28;20029;-66
2022/07/18 04:23:33;;;;;;;1999.90;999.90;;;;;;;21.30;42.60;96186.81;5030360;28;20040;-66
2022/07/18 04:25:58;;;;;;;1999.90;999.90;;;;;;;21.41;42.34;96171.63;5031157;28;20036;-65
2022/07/18 04:28:24;;;;;;;1999.90;999.90;;;;;;;21.55;41.66;96157.66;5030410;28;20037;-68
2022/07/18 04:30:50;;;;;;;1999.90;999.90;;;;;;;22.00;41.33;96199.72;5028494;28;20525;-67
2022/07/18 04:33:15;;;;;;;1999.90;999.90;;;;;;;22.18;41.00;96195.53;5030006;28;20031;-66
2022/07/18 04:35:41;;;;;;;1999.90;999.90;;;;;;;22.42;40.92;96197.25;5028458;28;20440;-69
2022/07/18 04:38:08;;;;;;;1999.90;999.90;;;;;;;22.37;40.61;96156.88;5030876;28;20112;-65
2022/07/18 04:40:34;;;;;;;1999.90;999.90;;;;;;;22.76;39.76;96192.91;5031473;28;20033;-66
2022/07/18 04:42:59;;;;;;;1999.90;999.90;;;;;;;22.68;39.76;96153.25;5028733;28;20025;-66
2022/07/18 04:45:24;;;;;;;1999.90;999.90;;;;;;;22.85;39.45;96162.88;5030665;28;20033;-68
2022/07/18 04:47:51;;;;;;;1999.90;999.90;;;;;;;22.61;39.38;96103.47;5015916;28;20034;-66
2022/07/18 04:50:17;;;;;;;1999.90;999.90;;;;;;;22.79;39.19;96094.56;5022825;28;20060;-66
2022/07/18 04:52:43;;;;;;;1999.90;999.90;;;;;;;23.23;38.80;96145.75;5028665;28;20541;-66
2022/07/18 04:55:10;;;;;;;1999.90;999.90;;;;;;;23.65;38.52;96184.88;5030729;28;20052;-66
2022/07/18 04:57:36;;;;;;;1999.90;999.90;;;;;;;23.20;38.06;96099.56;5030612;28;20096;-66
2022/07/18 05:00:08;;;;;;;1999.90;999.90;;;;;;;23.85;38.10;96170.91;5029691;28;20104;-66
2022/07/18 05:02:34;;;;;;;1999.90;999.90;;;;;;;23.88;37.97;96158.50;5027883;28;20030;-66
2022/07/18 05:04:59;;;;;;;1999.90;999.90;;;;;;;24.17;37.88;96191.56;5027886;28;20029;-66
2022/07/18 05:07:25;;;;;;;1999.90;999.90;;;;;;;24.08;37.67;96156.47;5029312;28;20025;-66
2022/07/18 05:09:50;;;;;;;1999.90;999.90;;;;;;;24.33;37.68;96184.78;5028614;28;20462;-66
2022/07/18 05:12:15;;;;;;;1999.90;999.90;;;;;;;24.10;37.41;96135.91;5029851;28;20091;-66
2022/07/18 05:14:40;;;;;;;1999.90;999.90;;;;;;;24.44;37.31;96178.75;5029265;28;20167;-68
2022/07/18 05:17:06;;;;;;;1999.90;999.90;;;;;;;24.47;37.29;96169.88;5028666;28;20076;-66
2022/07/18 05:19:31;;;;;;;1999.90;999.90;;;;;;;24.26;36.98;96126.81;5030142;28;20087;-66
2022/07/18 05:21:56;;;;;;;1999.90;999.90;;;;;;;24.71;36.60;96191.16;5029386;28;20036;-66
2022/07/18 05:24:22;;;;;;;1999.90;999.90;;;;;;;24.49;36.93;96152.00;5027582;28;20049;-66
2022/07/18 05:26:47;;;;;;;1999.90;999.90;;;;;;;24.67;36.69;96138.66;5030154;28;20086;-67
2022/07/18 05:29:13;;;;;;;1999.90;999.90;;;;;;;24.77;36.70;96151.59;5029974;28;20109;-67
2022/07/18 05:31:42;;;;;;;1999.90;999.90;;;;;;;24.71;36.40;96123.13;5028897;28;20029;-66
2022/07/18 05:34:08;;;;;;;1999.90;999.90;;;;;;;24.99;36.15;96151.84;5028019;28;20311;-66
2022/07/18 05:36:33;;;;;;;1999.90;999.90;;;;;;;24.99;36.14;96135.50;5028148;28;20037;-66
2022/07/18 05:38:58;;;;;;;1999.90;999.90;;;;;;;25.09;36.23;96143.03;5028942;28;20037;-67
2022/07/18 05:41:24;;;;;;;1999.90;999.90;;;;;;;25.41;36.01;96182.25;5027667;28;20037;-67
2022/07/18 05:43:49;;;;;;;1999.90;999.90;;;;;;;25.41;35.99;96165.13;5017853;28;20505;-67
2022/07/18 05:46:14;;;;;;;1999.90;999.90;;;;;;;25.32;35.88;96146.34;5029395;28;20029;-68
2022/07/18 05:48:40;;;;;;;1999.90;999.90;;;;;;;25.48;35.82;96164.38;5029388;28;20473;-68
2022/07/18 05:51:08;;;;;;;1999.90;999.90;;;;;;;25.49;35.66;96146.88;5029390;28;20037;-69
2022/07/18 05:53:34;;;;;;;1999.90;999.90;;;;;;;25.64;35.79;96186.72;5026535;28;20030;-67
2022/07/18 05:55:59;;;;;;;1999.90;999.90;;;;;;;25.37;36.05;96145.22;5027473;28;20029;-68
2022/07/18 05:58:24;;;;;;;1999.90;999.90;;;;;;;25.48;35.91;96169.84;5028161;28;20111;-67
2022/07/18 06:00:50;;;;;;;1999.90;999.90;;;;;;;25.46;35.58;96178.41;5029026;28;20019;-69
2022/07/18 06:03:15;;;;;;;1999.90;999.90;;;;;;;25.46;35.62;96175.66;5026929;28;20040;-68
2022/07/18 06:05:41;;;;;;;1999.90;999.90;;;;;;;25.12;35.55;96131.38;5029349;28;20101;-67
2022/07/18 06:08:06;;;;;;;1999.90;999.90;;;;;;;25.50;35.75;96179.22;5028674;28;20034;-68
2022/07/18 06:10:31;;;;;;;1999.90;999.90;;;;;;;25.27;35.72;96133.06;5027428;28;20033;-68
2022/07/18 06:12:57;;;;;;;1999.90;999.90;;;;;;;25.51;35.58;96158.22;5028396;28;20501;-68
2022/07/18 06:15:23;;;;;;;1999.90;999.90;;;;;;;25.68;35.51;96168.47;5026717;28;20026;-69
2022/07/18 06:17:48;;;;;;;1999.90;999.90;;;;;;;25.76;35.53;96164.69;5028831;28;20029;-70
2022/07/18 06:20:14;;;;;;;1999.90;999.90;;;;;;;25.82;35.19;96179.50;5027254;28;20026;-70
2022/07/18 06:22:39;;;;;;;1999.90;999.90;;;;;;;25.90;35.23;96172.19;5027121;28;20432;-70
2022/07/18 06:25:05;;;;;;;1999.90;999.90;;;;;;;25.63;35.02;96145.06;5027052;28;20099;-70
2022/07/18 06:27:30;;;;;;;1999.90;999.90;;;;;;;25.30;35.02;96109.78;5027645;28;20018;-69
2022/07/18 06:29:56;;;;;;;1999.90;999.90;;;;;;;25.56;34.99;96163.31;5026712;28;20901;-69
2022/07/18 06:32:22;;;;;;;1999.90;999.90;;;;;;;25.47;34.85;96120.03;5027686;28;20056;-70
2022/07/18 06:34:47;;;;;;;1999.90;999.90;;;;;;;25.44;34.63;96095.47;5028110;28;20026;-70
2022/07/18 06:37:12;;;;;;;1999.90;999.90;;;;;;;25.82;35.02;96127.72;5028654;28;20037;-73
2022/07/18 06:39:38;;;;;;;1999.90;999.90;;;;;;;26.02;34.66;96143.84;5029479;28;20021;-69
2022/07/18 06:42:03;;;;;;;1999.90;999.90;;;;;;;26.31;34.05;96172.84;5027732;28;20052;-69
2022/07/18 06:44:29;;;;;;;1999.90;999.90;;;;;;;25.60;34.19;96041.53;5029520;28;20018;-66
2022/07/18 06:46:57;;;;;;;1999.90;999.90;;;;;;;26.24;33.85;96129.16;5029677;28;20018;-69
2022/07/18 06:49:22;;;;;;;1999.90;999.90;;;;;;;26.04;34.03;96160.59;5029820;28;20433;-69
2022/07/18 06:51:47;;;;;;;1999.90;999.90;;;;;;;26.11;33.42;96149.75;5028748;28;20053;-70
2022/07/18 06:54:13;;;;;;;1999.90;999.90;;;;;;;26.02;33.85;96160.19;5027219;28;20030;-67
2022/07/18 06:56:38;;;;;;;1999.90;999.90;;;;;;;26.16;33.52;96130.31;5028037;28;20048;-69
2022/07/18 06:59:03;;;;;;;1999.90;999.90;;;;;;;26.42;33.06;96162.03;5029282;28;20541;-69
2022/07/18 07:01:29;;;;;;;1999.90;999.90;;;;;;;26.62;32.47;96170.72;5024983;28;20022;-70
2022/07/18 07:03:54;;;;;;;1999.90;999.90;;;;;;;26.36;32.48;96142.50;5029436;28;20030;-70
2022/07/18 07:06:20;;;;;;;1999.90;999.90;;;;;;;26.46;32.23;96149.16;5025383;28;20029;-70
2022/07/18 07:08:45;;;;;;;1999.90;999.90;;;;;;;26.35;32.85;96173.63;5028762;28;20108;-68
2022/07/18 07:11:11;;;;;;;1999.90;999.90;;;;;;;26.79;31.59;96178.19;5028191;28;20113;-68
2022/07/18 07:13:37;;;;;;;1999.90;999.90;;;;;;;26.67;30.23;96143.84;5026693;28;20034;-68
2022/07/18 07:16:02;;;;;;;1999.90;999.90;;;;;;;26.69;30.37;96137.97;5028295;28;20076;-69
2022/07/18 07:18:27;;;;;;;1999.90;999.90;;;;;;;27.08;30.03;96181.06;5028446;28;20516;-69
2022/07/18 07:20:53;;;;;;;1999.90;999.90;;;;;;;26.96;29.57;96141.97;5028255;28;20111;-69
2022/07/18 07:23:18;;;;;;;1999.90;999.90;;;;;;;27.09;29.24;96149.84;5027928;28;20038;-68
2022/07/18 07:25:43;;;;;;;1999.90;999.90;;;;;;;27.34;28.53;96191.66;5028951;28;20018;-68
2022/07/18 07:28:08;;;;;;;1999.90;999.90;;;;;;;26.56;29.35;96142.19;5025274;28;20034;-69
2022/07/18 07:30:34;;;;;;;1999.90;999.90;;;;;;;27.24;28.71;96186.94;5028887;28;20108;-69
2022/07/18 07:33:01;;;;;;;1999.90;999.90;;;;;;;27.08;29.02;96142.81;5030255;28;20036;-67
2022/07/18 07:35:28;;;;;;;1999.90;999.90;;;;;;;27.17;28.05;96184.97;5028591;28;20029;-68
2022/07/18 07:37:56;;;;;;;1999.90;999.90;;;;;;;27.35;28.05;96171.34;5031265;28;20755;-67
2022/07/18 07:40:26;;;;;;;1999.90;999.90;;;;;;;27.40;27.70;96160.06;5030309;28;20080;-67
2022/07/18 07:42:52;;;;;;;1999.90;999.90;;;;;;;27.32;27.76;96182.28;5042437;28;20107;-67
2022/07/18 07:45:18;;;;;;;1999.90;999.90;;;;;;;26.81;27.86;96087.72;5019404;28;20033;-67
2022/07/18 07:47:43;;;;;;;1999.90;999.90;;;;;;;27.12;26.09;96168.19;5025700;28;20479;-67
2022/07/18 07:50:10;;;;;;;1999.90;999.90;;;;;;;27.54;26.40;96159.28;5011347;28;20049;-68
2022/07/18 07:52:36;;;;;;;1999.90;999.90;;;;;;;27.90;25.57;96187.44;5031468;28;20033;-68
2022/07/18 07:55:03;;;;;;;1999.90;999.90;;;;;;;27.92;26.20;96156.97;5031123;28;20057;-68
2022/07/18 07:57:28;;;;;;;1999.90;999.90;;;;;;;28.08;24.91;96181.97;5031062;28;20033;-68
2022/07/18 07:59:54;;;;;;;1999.90;999.90;;;;;;;27.95;24.79;96146.03;5032309;28;20072;-68
2022/07/18 08:02:19;;;;;;;1999.90;999.90;;;;;;;28.05;24.31;96171.00;5031652;28;20525;-68
2022/07/18 08:04:44;;;;;;;1999.90;999.90;;;;;;;27.80;23.66;96124.56;5030430;28;20246;-68
2022/07/18 08:07:10;;;;;;;1999.90;999.90;;;;;;;28.04;23.96;96137.41;5029739;28;20029;-68
2022/07/18 08:09:36;;;;;;;1999.90;999.90;;;;;;;28.10;24.48;96115.91;5030689;28;20079;-68
2022/07/18 08:12:02;;;;;;;1999.90;999.90;;;;;;;28.60;24.82;96167.81;5029628;28;20026;-68
2022/07/18 08:14:27;;;;;;;1999.90;999.90;;;;;;;28.37;24.92;96135.44;5031810;28;20454;-68
2022/07/18 08:16:52;;;;;;;1999.90;999.90;;;;;;;28.16;23.45;96139.75;5031725;28;20025;-68
2022/07/18 08:19:18;;;;;;;1999.90;999.90;;;;;;;28.26;23.42;96176.47;5031761;28;20432;-66
2022/07/18 08:21:43;;;;;;;1999.90;999.90;;;;;;;28.01;21.38;96151.13;5030860;28;20451;-66
2022/07/18 08:24:08;;;;;;;1999.90;999.90;;;;;;;27.83;23.04;96162.03;5029964;28;20029;-67
2022/07/18 08:26:35;;;;;;;1999.90;999.90;;;;;;;28.04;23.04;96153.81;5031768;28;20097;-67
2022/07/18 08:29:01;;;;;;;1999.90;999.90;;;;;;;27.86;22.98;96142.91;5031611;28;20108;-69
2022/07/18 08:31:27;;;;;;;1999.90;999.90;;;;;;;27.88;22.96;96115.19;5030793;28;20032;-68
2022/07/18 08:33:52;;;;;;;1999.90;999.90;;;;;;;28.38;22.93;96129.56;5029579;28;20033;-68
2022/07/18 08:36:17;;;;;;;1999.90;999.90;;;;;;;28.81;22.45;96162.25;5024158;28;20022;-67
2022/07/18 08:38:43;;;;;;;1999.90;999.90;;;;;;;28.53;21.58;96126.78;5010895;28;20030;-68
2022/07/18 08:41:08;;;;;;;1999.90;999.90;;;;;;;28.69;20.99;96152.53;5011680;28;20104;-68
2022/07/18 08:43:34;;;;;;;1999.90;999.90;;;;;;;28.63;21.66;96153.34;5018112;28;20038;-68
2022/07/18 08:46:04;;;;;;;1999.90;999.90;;;;;;;28.93;21.77;96153.59;5017511;28;20061;-67
2022/07/18 08:48:30;;;;;;;1999.90;999.90;;;;;;;28.66;21.64;96134.16;5011689;28;20033;-68
2022/07/18 08:50:56;;;;;;;1999.90;999.90;;;;;;;28.72;19.62;96142.75;5017369;28;20037;-68
2022/07/18 08:53:21;;;;;;;1999.90;999.90;;;;;;;28.36;21.19;96145.59;5030479;28;20026;-68
2022/07/18 08:55:48;;;;;;;1999.90;999.90;;;;;;;28.58;20.77;96132.63;5031243;28;20528;-67
2022/07/18 08:58:17;;;;;;;1999.90;999.90;;;;;;;29.03;21.37;96123.84;5031372;28;20378;-67
2022/07/18 09:00:42;;;;;;;1999.90;999.90;;;;;;;28.76;21.98;96159.91;5031332;28;20030;-68
2022/07/18 09:03:08;;;;;;;1999.90;999.90;;;;;;;28.27;22.11;96133.47;5030544;28;20393;-68
2022/07/18 09:05:33;;;;;;;1999.90;999.90;;;;;;;29.04;20.85;96144.59;5028998;28;20029;-67
2022/07/18 09:08:16;;;;;;;1999.90;999.90;;;;;;;29.45;20.66;96156.47;5029687;28;20022;-67
2022/07/18 09:10:55;;;;;;;1999.90;999.90;;;;;;;29.64;20.42;96141.47;5031005;28;20026;-68
2022/07/18 09:13:34;;;;;;;1999.90;999.90;;;;;;;29.86;19.40;96155.78;5030628;28;20033;-67
2022/07/18 09:16:07;;;;;;;1999.90;999.90;;;;;;;29.84;19.10;96135.41;5028475;28;20036;-67
2022/07/18 09:18:36;;;;;;;1999.90;999.90;;;;;;;29.81;18.25;96131.53;5029592;28;20025;-67
2022/07/18 09:21:09;;;;;;;1999.90;999.90;;;;;;;30.02;18.87;96130.56;5028435;28;20026;-68
2022/07/18 09:23:37;;;;;;;1999.90;999.90;;;;;;;29.91;17.94;96133.41;5028966;28;20034;-67
2022/07/18 09:26:04;;;;;;;1999.90;999.90;;;;;;;29.84;18.02;96121.69;5030885;28;20099;-67
2022/07/18 09:28:47;;;;;;;1999.90;999.90;;;;;;;30.15;17.86;96141.81;5030780;28;20026;-68
2022/07/18 09:31:26;;;;;;;1999.90;999.90;;;;;;;30.44;17.54;96151.31;5029905;28;20030;-68
2022/07/18 09:33:59;;;;;;;1999.90;999.90;;;;;;;29.57;19.10;96148.97;5029387;28;20029;-68
2022/07/18 09:36:25;;;;;;;1999.90;999.90;;;;;;;29.26;19.43;96137.78;5027719;28;20413;-68
2022/07/18 09:38:51;;;;;;;1999.90;999.90;;;;;;;30.22;19.10;96144.50;5029202;28;20025;-68
2022/07/18 09:41:22;;;;;;;1999.90;999.90;;;;;;;29.54;19.35;96125.88;5029296;28;20033;-68
2022/07/18 09:43:47;;;;;;;1999.90;999.90;;;;;;;30.01;18.74;96149.00;5028524;28;20053;-68
2022/07/18 09:46:20;;;;;;;1999.90;999.90;;;;;;;29.75;18.44;96103.78;5030334;28;20072;-67
2022/07/18 09:48:46;;;;;;;1999.90;999.90;;;;;;;29.50;19.27;96150.53;5030124;28;20032;-68
2022/07/18 09:51:11;;;;;;;1999.90;999.90;;;;;;;29.58;19.05;96115.66;5029493;28;20033;-68
2022/07/18 09:53:42;;;;;;;1999.90;999.90;;;;;;;29.99;19.06;96153.31;5029060;28;20033;-70
2022/07/18 09:56:12;;;;;;;1999.90;999.90;;;;;;;30.31;19.01;96136.56;5029916;28;20036;-67
2022/07/18 09:58:49;;;;;;;1999.90;999.90;;;;;;;30.34;18.74;96143.19;5028850;28;20036;-67
2022/07/18 10:01:15;;;;;;;1999.90;999.90;;;;;;;29.94;19.07;96132.59;5030074;28;20026;-69
2022/07/18 10:03:40;;;;;;;1999.90;999.90;;;;;;;30.06;18.63;96117.59;5028436;28;20080;-68
2022/07/18 10:06:06;;;;;;;1999.90;999.90;;;;;;;30.24;18.67;96123.69;5028072;28;20036;-68
2022/07/18 10:08:33;;;;;;;1999.90;999.90;;;;;;;30.42;18.45;96129.00;5028530;28;20048;-68
2022/07/18 10:11:00;;;;;;;1999.90;999.90;;;;;;;29.48;19.43;96121.97;5028434;28;20036;-68
2022/07/18 10:13:28;;;;;;;1999.90;999.90;;;;;;;30.22;19.21;96137.06;5028227;28;20021;-68
2022/07/18 10:15:54;;;;;;;1999.90;999.90;;;;;;;30.34;18.77;96100.06;5027726;28;20028;-68
2022/07/18 10:18:23;;;;;;;1999.90;999.90;;;;;;;30.74;18.62;96134.13;5027711;28;20394;-67
2022/07/18 10:20:54;;;;;;;1999.90;999.90;;;;;;;30.54;18.40;96092.00;5028612;28;20064;-68
2022/07/18 10:23:22;;;;;;;;;;;;;;;31.04;17.55;96138.06;5026823;28;20076;-68
2022/07/18 10:26:06;;;;;;;1999.90;999.90;;;;;;;31.04;17.43;96119.63;5029613;28;19913;-67
2022/07/18 10:28:32;;;;;;;1999.90;999.90;;;;;;;30.60;17.73;96095.84;5029632;28;20060;-68
2022/07/18 10:31:18;;;;;;;1999.90;999.90;;;;;;;30.32;17.86;96134.63;5026997;28;20025;-68
2022/07/18 10:33:47;;;;;;;1999.90;999.90;;;;;;;30.90;17.51;96130.78;5027533;28;20072;-68
2022/07/18 10:36:17;;;;;;;1999.90;999.90;;;;;;;30.01;18.17;96120.78;5028171;28;20029;-68
2022/07/18 10:39:12;;;;;;;1999.90;999.90;;;;;;;30.21;17.95;96135.50;5029714;28;20043;-67
2022/07/18 10:41:43;;;;;;;1999.90;999.90;;;;;;;29.97;18.13;96137.25;5020214;28;20393;-67
2022/07/18 10:44:20;;;;;;;;;;;;;;;30.09;18.18;96132.44;5029186;28;20124;-66
2022/07/18 10:47:20;;;;;;;1999.90;999.90;;;;;;;30.77;17.41;96121.56;5029585;28;20070;-69
2022/07/18 10:49:45;;;;;;;1999.90;999.90;;;;;;;30.72;17.69;96135.75;5025347;28;20117;-68
2022/07/18 10:52:23;;;;;;;1999.90;999.90;;;;;;;30.80;17.40;96127.00;5027904;28;20108;-68